createdAt,value
2022-09-27T00:06:07.809Z,98588.44
2022-09-27T00:12:53.973Z,98517.94
2022-09-27T00:19:42.289Z,98588.59
2022-09-27T00:26:28.019Z,98592.06
2022-09-27T00:33:14.005Z,98444.91
2022-09-27T00:40:02.265Z,98579.84
2022-09-27T00:46:52.736Z,98581.88
2022-09-27T00:53:48.549Z,98554.03
2022-09-27T01:00:38.066Z,98573.44
2022-09-27T01:07:23.666Z,98574.34
2022-09-27T01:14:41.681Z,98573.97
2022-09-27T01:21:56.626Z,98564.06
2022-09-27T01:28:59.164Z,98567.59
2022-09-27T01:36:00.949Z,98473.16
2022-09-27T01:42:55.456Z,98566.41
2022-09-27T01:49:50.555Z,98562.97
2022-09-27T01:56:44.230Z,98557.13
2022-09-27T02:03:42.594Z,98566.34
2022-09-27T02:10:55.241Z,98563.25
2022-09-27T02:17:50.660Z,98569.09
2022-09-27T02:24:43.572Z,98563.44
2022-09-27T02:31:29.658Z,98564.13
2022-09-27T02:38:19.620Z,98485.03
2022-09-27T03:05:58.893Z,98594.84
2022-09-27T03:12:44.669Z,98598.19
2022-09-27T03:19:30.432Z,98607.44
2022-09-27T03:26:38.933Z,98617.03
2022-09-27T03:33:24.744Z,98627.34
2022-09-27T03:40:16.233Z,98632.81
2022-09-27T03:47:04.690Z,98640.78
2022-09-27T03:53:50.592Z,98647.44
2022-09-27T04:00:37.254Z,98655.03
2022-09-27T04:07:25.835Z,98677.16
2022-09-27T04:14:13.085Z,98685.13
2022-09-27T04:21:15.916Z,98686.44
2022-09-27T04:28:10.622Z,98655.56
2022-09-27T04:35:08.767Z,98688.09
2022-09-27T04:41:54.515Z,98696.69
2022-09-27T04:48:43.180Z,98703.88
2022-09-27T04:55:28.910Z,98705.78
2022-09-27T05:02:14.623Z,98712.50
2022-09-27T05:09:25.864Z,98659.06
2022-09-27T05:16:15.499Z,98628.66
2022-09-27T05:23:39.252Z,98721.78
2022-09-27T05:30:27.523Z,98727.75
2022-09-27T05:37:23.553Z,98738.47
2022-09-27T05:44:09.125Z,98743.69
2022-09-27T05:51:02.595Z,98762.28
2022-09-27T05:57:59.276Z,98762.34
2022-09-27T06:04:51.812Z,98777.50
2022-09-27T06:11:59.355Z,98771.75
2022-09-27T06:18:46.413Z,98726.03
2022-09-27T06:25:32.223Z,98791.47
2022-09-27T06:32:38.653Z,98803.22
2022-09-27T06:39:35.990Z,98811.91
2022-09-27T06:46:42.903Z,98813.19
2022-09-27T06:53:31.715Z,98822.28
2022-09-27T07:00:27.270Z,98838.25
2022-09-27T07:07:32.465Z,98844.34
2022-09-27T07:14:21.665Z,98862.41
2022-09-27T07:21:09.249Z,98874.19
2022-09-27T07:27:56.196Z,98881.06
2022-09-27T07:34:44.477Z,98883.28
2022-09-27T07:41:32.007Z,98904.03
2022-09-27T07:48:19.437Z,98903.31
2022-09-27T07:55:21.949Z,98900.44
2022-09-27T08:02:19.290Z,98918.13
2022-09-27T08:09:09.927Z,98917.28
2022-09-27T08:16:05.757Z,98832.69
2022-09-27T08:23:08.938Z,98935.31
2022-09-27T08:29:59.087Z,98933.66
2022-09-27T08:36:47.471Z,98931.16
2022-09-27T08:43:44.969Z,98936.69
2022-09-27T08:50:39.793Z,98946.63
2022-09-27T08:57:29.653Z,98948.00
2022-09-27T09:04:27.398Z,98955.28
2022-09-27T09:11:32.623Z,98948.97
2022-09-27T09:18:36.456Z,98943.53
2022-09-27T09:25:48.817Z,98944.22
2022-09-27T09:32:48.849Z,98941.03
2022-09-27T09:39:43.914Z,98940.81
2022-09-27T09:46:38.654Z,98928.31
2022-09-27T09:53:42.677Z,98931.44
2022-09-27T10:00:32.474Z,98934.09
2022-09-27T10:07:24.734Z,98933.25
2022-09-27T10:14:15.872Z,98831.63
2022-09-27T10:21:13.593Z,98928.44
2022-09-27T10:28:01.088Z,98882.97
2022-09-27T10:34:51.348Z,98918.94
2022-09-27T10:41:42.600Z,98921.19
2022-09-27T10:48:33.933Z,98914.25
2022-09-27T10:55:28.869Z,98861.63
2022-09-27T11:02:25.545Z,98907.31
2022-09-27T11:09:26.865Z,98902.44
2022-09-27T11:16:51.992Z,98895.91
2022-09-27T11:23:57.846Z,98880.16
2022-09-27T11:30:53.315Z,98881.88
2022-09-27T11:38:06.749Z,98884.09
2022-09-27T11:52:45.969Z,98855.59
2022-09-27T12:00:13.053Z,98857.97
2022-09-27T12:07:11.919Z,98855.53
2022-09-27T12:14:04.696Z,98848.44
2022-09-27T12:20:51.738Z,98848.91
2022-09-27T12:27:43.888Z,98844.38
2022-09-27T12:34:43.724Z,98842.28
2022-09-27T12:41:31.968Z,98851.03
2022-09-27T12:48:48.531Z,98846.28
2022-09-27T12:56:06.925Z,98855.47
2022-09-27T13:03:39.249Z,98847.94
2022-09-27T13:10:45.260Z,98765.63
2022-09-27T13:17:56.378Z,98862.69
2022-09-27T13:24:59.116Z,98862.50
2022-09-27T13:32:29.064Z,98847.31
2022-09-27T13:39:28.226Z,98853.53
2022-09-27T13:46:57.875Z,98850.78
2022-09-27T13:53:46.755Z,98858.47
2022-09-27T14:00:42.579Z,98837.75
2022-09-27T14:07:39.442Z,98847.03
2022-09-27T14:14:29.335Z,98836.16
2022-09-27T14:21:30.717Z,98844.97
2022-09-27T14:28:45.327Z,98832.13
2022-09-27T14:35:51.580Z,98810.47
2022-09-27T14:42:39.728Z,98832.84
2022-09-27T14:49:28.533Z,98804.63
2022-09-27T14:56:19.408Z,98836.25
2022-09-27T15:03:09.358Z,98831.97
2022-09-27T15:09:57.724Z,98836.38
2022-09-27T15:16:43.821Z,98758.97
2022-09-27T15:23:32.159Z,98861.00
2022-09-27T15:30:29.868Z,98786.41
2022-09-27T15:37:30.568Z,98884.13
2022-09-27T15:44:41.582Z,98811.47
2022-09-27T15:51:47.979Z,98885.81
2022-09-27T15:58:34.252Z,98881.19
2022-09-27T16:05:19.800Z,98885.28
2022-09-27T16:12:08.295Z,98887.03
2022-09-27T16:18:53.655Z,98895.06
2022-09-27T16:25:39.194Z,98897.84
2022-09-27T16:32:27.329Z,98891.94
2022-09-27T16:39:16.304Z,98895.19
2022-09-27T16:46:11.764Z,98913.69
2022-09-27T16:53:00.604Z,98902.00
2022-09-27T16:59:46.060Z,98898.94
2022-09-27T17:06:31.953Z,98900.25
2022-09-27T17:13:19.928Z,98905.78
2022-09-27T17:20:06.676Z,98899.00
2022-09-27T17:26:52.367Z,98905.28
2022-09-27T17:33:46.102Z,98903.63
2022-09-27T17:40:31.768Z,98919.16
2022-09-27T17:47:29.670Z,98926.84
2022-09-27T17:54:19.728Z,98916.09
2022-09-27T18:01:07.118Z,98881.91
2022-09-27T18:07:52.668Z,98936.25
2022-09-27T18:14:40.575Z,98931.88
2022-09-27T18:21:27.057Z,98943.31
2022-09-27T18:28:12.752Z,98947.53
2022-09-27T18:35:01.053Z,98942.34
2022-09-27T18:41:47.740Z,98872.22
2022-09-27T18:48:35.218Z,98974.56
2022-09-27T18:55:25.437Z,98963.75
2022-09-27T19:02:13.744Z,98976.66
2022-09-27T19:09:00.428Z,98972.34
2022-09-27T19:15:58.474Z,98960.25
2022-09-27T19:22:43.891Z,98959.38
2022-09-27T19:29:29.569Z,98971.50
2022-09-27T19:36:20.235Z,98968.78
2022-09-27T19:43:05.612Z,98981.50
2022-09-27T19:49:51.084Z,98972.03
2022-09-27T19:56:39.224Z,98936.06
2022-09-27T20:03:24.604Z,98961.69
2022-09-27T20:10:12.120Z,98896.84
2022-09-27T20:17:00.292Z,98939.47
2022-09-27T20:23:46.394Z,98946.00
2022-09-27T20:30:32.760Z,98932.25
2022-09-27T20:37:21.055Z,98924.59
2022-09-27T20:44:08.981Z,98920.13
2022-09-27T20:51:04.251Z,98910.63
2022-09-27T20:57:57.779Z,98905.56
2022-09-27T21:04:43.449Z,98896.28
2022-09-27T21:11:29.170Z,98883.09
2022-09-27T21:18:20.057Z,98888.09
2022-09-27T21:25:06.572Z,98853.22
2022-09-27T21:31:51.941Z,98862.97
2022-09-27T21:38:40.206Z,98807.06
2022-09-27T21:45:25.572Z,98855.41
2022-09-27T21:52:10.990Z,98847.84
2022-09-27T21:58:59.119Z,98840.75
2022-09-27T22:05:47.829Z,98840.28
2022-09-27T22:12:33.193Z,98835.94
2022-09-27T22:19:21.234Z,98824.50
2022-09-27T22:26:15.752Z,98824.50
2022-09-27T22:33:01.165Z,98806.88
2022-09-27T22:39:49.157Z,98798.19
2022-09-27T22:46:34.557Z,98770.88
2022-09-27T22:53:19.991Z,98748.91
2022-09-27T23:00:09.838Z,98745.59
2022-09-27T23:06:55.355Z,98729.81
2022-09-27T23:13:43.657Z,98726.72
2022-09-27T23:20:31.874Z,98718.25
2022-09-27T23:27:29.732Z,98705.69
2022-09-27T23:34:15.778Z,98704.44
2022-09-27T23:41:03.995Z,98621.66
2022-09-27T23:47:49.627Z,98666.81
2022-09-27T23:54:35.571Z,98616.66
